createdAt,value
2019-02-21T00:01:17.665Z,1.23
2019-02-21T00:03:45.263Z,2.43
2019-02-21T00:06:12.002Z,1.47
2019-02-21T00:08:39.666Z,1.40
2019-02-21T00:11:06.507Z,1.17
2019-02-21T00:13:33.279Z,1.03
2019-02-21T00:16:00.078Z,1.60
2019-02-21T00:18:27.653Z,1.10
2019-02-21T00:20:54.462Z,2.00
2019-02-21T00:23:21.866Z,1.63
2019-02-21T00:25:48.790Z,4.20
2019-02-21T00:28:15.634Z,0.90
2019-02-21T00:30:43.294Z,2.40
2019-02-21T00:33:10.855Z,1.53
2019-02-21T00:35:38.418Z,1.77
2019-02-21T00:38:06.078Z,4.23
2019-02-21T00:40:32.938Z,1.60
2019-02-21T00:42:59.662Z,1.07
2019-02-21T00:45:26.457Z,1.77
2019-02-21T00:47:53.348Z,1.50
2019-02-21T00:50:20.294Z,1.37
2019-02-21T00:52:47.851Z,1.60
2019-02-21T00:55:15.413Z,2.10
2019-02-21T00:57:42.157Z,1.10
2019-02-21T01:00:09.001Z,1.30
2019-02-21T01:02:36.555Z,0.97
2019-02-21T01:05:04.119Z,2.00
2019-02-21T01:07:31.062Z,1.30
2019-02-21T01:09:58.622Z,1.30
2019-02-21T01:12:25.350Z,1.67
2019-02-21T01:14:52.819Z,1.53
2019-02-21T01:17:19.558Z,1.10
2019-02-21T01:19:46.299Z,1.37
2019-02-21T01:22:13.141Z,1.30
2019-02-21T01:24:39.986Z,1.30
2019-02-21T01:27:06.827Z,1.50
2019-02-21T01:29:34.388Z,1.20
2019-02-21T01:32:01.335Z,1.43
2019-02-21T01:34:28.075Z,1.90
2019-02-21T01:36:55.530Z,2.80
2019-02-21T01:39:23.088Z,1.70
2019-02-21T01:41:50.548Z,1.20
2019-02-21T01:44:18.107Z,1.50
2019-02-21T01:46:45.407Z,1.30
2019-02-21T01:49:12.161Z,1.03
2019-02-21T01:51:39.048Z,1.67
2019-02-21T01:54:06.095Z,1.20
2019-02-21T01:56:33.858Z,1.67
2019-02-21T01:59:00.803Z,1.10
2019-02-21T02:01:27.546Z,1.23
2019-02-21T02:03:54.385Z,1.43
2019-02-21T02:06:21.128Z,1.10
2019-02-21T02:08:47.994Z,1.73
2019-02-21T02:11:14.813Z,1.47
2019-02-21T02:13:41.552Z,1.87
2019-02-21T02:16:09.011Z,1.27
2019-02-21T02:18:36.671Z,1.03
2019-02-21T02:21:04.230Z,1.57
2019-02-21T02:23:30.974Z,1.77
2019-02-21T02:25:57.712Z,1.83
2019-02-21T02:28:24.657Z,1.00
2019-02-21T02:30:52.321Z,1.40
2019-02-21T02:33:19.071Z,1.43
2019-02-21T02:35:45.803Z,1.00
2019-02-21T02:38:12.543Z,1.30
2019-02-21T02:40:39.284Z,1.50
2019-02-21T02:43:06.024Z,1.40
2019-02-21T02:45:33.686Z,1.50
2019-02-21T02:48:00.526Z,1.97
2019-02-21T02:50:27.988Z,1.23
2019-02-21T02:52:54.934Z,1.40
2019-02-21T02:55:21.609Z,3.03
2019-02-21T02:57:48.309Z,3.00
2019-02-21T03:00:15.157Z,3.50
2019-02-21T03:02:41.995Z,2.03
2019-02-21T03:05:08.839Z,1.57
2019-02-21T03:07:35.680Z,1.07
2019-02-21T03:10:03.344Z,1.43
2019-02-21T03:12:30.194Z,1.53
2019-02-21T03:14:57.641Z,1.33
2019-02-21T03:17:25.206Z,1.03
2019-02-21T03:19:52.047Z,1.30
2019-02-21T03:22:18.887Z,1.57
2019-02-21T03:24:46.266Z,1.27
2019-02-21T03:27:13.085Z,2.13
2019-02-21T03:29:40.031Z,2.67
2019-02-21T03:32:07.489Z,1.40
2019-02-21T03:34:35.765Z,1.60
2019-02-21T03:37:02.601Z,2.60
2019-02-21T03:39:29.351Z,1.13
2019-02-21T03:41:56.909Z,1.63
2019-02-21T03:44:23.647Z,1.83
2019-02-21T03:46:50.492Z,1.50
2019-02-21T03:49:17.229Z,1.00
2019-02-21T03:51:44.688Z,1.37
2019-02-21T03:54:12.245Z,1.20
2019-02-21T03:56:39.705Z,1.50
2019-02-21T03:59:07.161Z,1.10
2019-02-21T04:01:34.722Z,1.07
2019-02-21T04:04:01.463Z,1.77
2019-02-21T04:06:28.417Z,1.87
2019-02-21T04:08:55.253Z,2.30
2019-02-21T04:11:22.097Z,1.53
2019-02-21T04:13:48.941Z,1.50
2019-02-21T04:16:15.884Z,1.00
2019-02-21T04:18:42.726Z,4.23
2019-02-21T04:21:10.282Z,1.00
2019-02-21T04:23:37.843Z,2.00
2019-02-21T04:26:04.601Z,4.70
2019-02-21T04:28:31.412Z,7.90
2019-02-21T04:30:58.372Z,3.10
2019-02-21T04:33:25.113Z,4.57
2019-02-21T04:35:51.855Z,8.03
2019-02-21T04:38:19.518Z,1.80
2019-02-21T04:40:46.258Z,8.00
2019-02-21T04:43:13.922Z,5.93
2019-02-21T04:45:40.657Z,3.80
2019-02-21T04:48:08.116Z,9.53
2019-02-21T04:50:35.776Z,11.07
2019-02-21T04:53:02.519Z,4.77
2019-02-21T04:55:29.298Z,2.20
2019-02-21T04:57:56.100Z,6.13
2019-02-21T05:00:23.562Z,8.57
2019-02-21T05:02:50.405Z,5.07
2019-02-21T05:05:17.351Z,5.07
2019-02-21T05:07:44.084Z,5.07
2019-02-21T05:10:10.933Z,3.73
2019-02-21T05:12:37.775Z,4.23
2019-02-21T05:15:05.129Z,5.00
2019-02-21T05:17:31.868Z,5.97
2019-02-21T05:19:58.709Z,6.00
2019-02-21T05:22:26.258Z,4.17
2019-02-21T05:24:53.119Z,3.60
2019-02-21T05:27:19.935Z,2.03
2019-02-21T05:29:47.518Z,7.27
2019-02-21T05:32:16.987Z,3.37
2019-02-21T05:34:48.573Z,13.23
2019-02-21T05:37:16.259Z,16.13
2019-02-21T05:39:49.223Z,19.20
2019-02-21T05:42:22.111Z,13.37
2019-02-21T05:47:43.012Z,10.98
2019-02-21T05:50:17.994Z,18.10
2019-02-21T05:52:46.757Z,10.90
2019-02-21T05:55:15.419Z,16.23
2019-02-21T05:57:47.217Z,7.77
2019-02-21T06:00:15.897Z,8.10
2019-02-21T06:02:53.732Z,9.00
2019-02-21T06:05:29.333Z,1.30
2019-02-21T06:07:57.116Z,2.90
2019-02-21T06:10:24.021Z,3.80
2019-02-21T06:12:54.432Z,2.33
2019-02-21T06:15:21.211Z,6.33
2019-02-21T06:17:57.836Z,5.23
2019-02-21T06:20:26.576Z,4.77
2019-02-21T06:22:54.168Z,3.87
2019-02-21T06:25:21.721Z,1.23
2019-02-21T06:27:48.527Z,1.90
2019-02-21T06:30:15.263Z,1.97
2019-02-21T06:32:42.750Z,1.10
2019-02-21T06:35:09.507Z,1.87
2019-02-21T06:37:37.904Z,1.30
2019-02-21T06:40:03.124Z,2.77
2019-02-21T06:42:29.845Z,1.67
2019-02-21T06:44:56.564Z,2.03
2019-02-21T06:47:23.211Z,1.60
2019-02-21T06:49:49.847Z,2.53
2019-02-21T06:52:16.548Z,2.50
2019-02-21T06:54:43.235Z,1.40
2019-02-21T06:57:09.896Z,1.50
2019-02-21T06:59:43.327Z,3.03
2019-02-21T07:02:04.165Z,2.83
2019-02-21T07:04:33.288Z,1.37
2019-02-21T07:06:57.605Z,1.00
2019-02-21T07:09:24.382Z,1.60
2019-02-21T07:11:51.122Z,2.10
2019-02-21T07:14:19.235Z,1.50
2019-02-21T07:16:45.923Z,1.40
2019-02-21T07:19:12.709Z,1.13
2019-02-21T07:21:39.373Z,2.73
2019-02-21T07:24:06.819Z,1.33
2019-02-21T07:26:33.630Z,1.37
2019-02-21T07:29:00.266Z,1.67
2019-02-21T07:31:29.026Z,1.03
2019-02-21T07:33:55.712Z,1.43
2019-02-21T07:36:23.155Z,1.00
2019-02-21T07:38:50.415Z,1.57
2019-02-21T07:41:18.651Z,1.00
2019-02-21T07:43:48.096Z,2.07
2019-02-21T07:46:15.349Z,2.23
2019-02-21T07:48:42.140Z,0.90
2019-02-21T07:51:09.393Z,1.63
2019-02-21T07:53:38.411Z,1.43
2019-02-21T07:56:06.863Z,2.07
2019-02-21T07:58:34.769Z,4.03
2019-02-21T08:01:01.682Z,2.77
2019-02-21T08:03:35.773Z,1.93
2019-02-21T08:05:55.564Z,2.23
2019-02-21T08:08:22.305Z,3.10
2019-02-21T08:10:49.769Z,2.50
2019-02-21T08:13:16.747Z,3.37
2019-02-21T08:15:43.543Z,1.90
2019-02-21T08:18:10.217Z,6.27
2019-02-21T08:20:40.784Z,1.93
2019-02-21T08:23:03.820Z,3.17
2019-02-21T08:25:30.608Z,3.90
2019-02-21T08:27:57.554Z,2.10
2019-02-21T08:30:24.500Z,1.37
2019-02-21T08:33:03.800Z,1.23
2019-02-21T08:35:30.731Z,1.57
2019-02-21T08:37:57.522Z,1.73
2019-02-21T08:40:25.103Z,1.53
2019-02-21T08:42:51.883Z,2.37
2019-02-21T08:45:18.577Z,1.43
2019-02-21T08:47:45.522Z,2.10
2019-02-21T08:50:12.240Z,1.20
2019-02-21T08:52:42.888Z,3.07
2019-02-21T08:55:09.711Z,2.07
2019-02-21T08:57:37.290Z,1.40
2019-02-21T09:00:04.140Z,1.50
2019-02-21T09:02:30.964Z,1.13
2019-02-21T09:04:58.527Z,1.20
2019-02-21T09:07:25.274Z,0.70
2019-02-21T09:09:52.214Z,1.60
2019-02-21T09:12:18.905Z,0.80
2019-02-21T09:14:45.795Z,0.60
2019-02-21T09:17:12.448Z,1.80
2019-02-21T09:19:39.187Z,2.27
2019-02-21T09:22:06.034Z,0.60
2019-02-21T09:24:38.713Z,1.03
2019-02-21T09:27:00.426Z,2.57
2019-02-21T09:29:27.265Z,1.20
2019-02-21T09:31:54.001Z,0.70
2019-02-21T09:34:21.582Z,0.67
2019-02-21T09:36:49.123Z,1.07
2019-02-21T09:39:16.105Z,0.60
2019-02-21T09:41:42.706Z,0.90
2019-02-21T09:44:09.548Z,1.40
2019-02-21T09:46:36.343Z,0.97
2019-02-21T09:49:03.234Z,0.60
2019-02-21T09:51:30.077Z,0.87
2019-02-21T09:53:56.815Z,0.60
2019-02-21T09:56:30.337Z,1.33
2019-02-21T09:58:50.403Z,0.60
2019-02-21T10:01:17.141Z,1.13
2019-02-21T10:03:44.313Z,1.07
2019-02-21T10:06:11.438Z,0.50
2019-02-21T10:08:38.180Z,0.63
2019-02-21T10:11:05.022Z,0.73
2019-02-21T10:13:31.763Z,0.60
2019-02-21T10:15:59.331Z,1.27
2019-02-21T10:18:26.165Z,1.00
2019-02-21T10:20:52.911Z,0.50
2019-02-21T10:23:19.647Z,0.60
2019-02-21T10:25:46.386Z,0.60
2019-02-21T10:28:14.066Z,0.93
2019-02-21T10:30:40.997Z,0.60
2019-02-21T10:33:07.701Z,0.43
2019-02-21T10:35:34.788Z,0.47
2019-02-21T10:38:01.548Z,2.10
2019-02-21T10:40:28.228Z,1.10
2019-02-21T10:42:55.721Z,4.00
2019-02-21T10:45:22.441Z,0.40
2019-02-21T10:47:49.928Z,0.80
2019-02-21T10:50:17.687Z,0.63
2019-02-21T10:52:48.689Z,0.97
2019-02-21T10:55:15.572Z,0.57
2019-02-21T10:57:42.280Z,2.07
2019-02-21T11:00:10.788Z,0.77
2019-02-21T11:02:38.347Z,0.50
2019-02-21T11:05:06.015Z,0.90
2019-02-21T11:07:32.698Z,0.50
2019-02-21T11:09:59.599Z,0.60
2019-02-21T11:12:26.338Z,0.80
2019-02-21T11:14:53.078Z,1.30
2019-02-21T11:17:19.812Z,0.40
2019-02-21T11:19:46.559Z,0.80
2019-02-21T11:22:14.118Z,4.43
2019-02-21T11:24:41.785Z,0.53
2019-02-21T11:27:08.520Z,0.73
2019-02-21T11:29:35.873Z,0.43
2019-02-21T11:32:02.713Z,0.60
2019-02-21T11:34:29.565Z,0.77
2019-02-21T11:36:56.302Z,0.87
2019-02-21T11:39:23.244Z,0.97
2019-02-21T11:41:50.089Z,0.47
2019-02-21T11:44:16.933Z,1.43
2019-02-21T11:46:43.625Z,0.80
2019-02-21T11:49:10.518Z,0.50
2019-02-21T11:51:37.461Z,0.60
2019-02-21T11:54:04.202Z,0.80
2019-02-21T11:56:30.949Z,0.57
2019-02-21T11:58:57.783Z,0.53
2019-02-21T12:01:24.523Z,1.27
2019-02-21T12:03:51.466Z,0.43
2019-02-21T12:06:18.988Z,0.60
2019-02-21T12:08:45.770Z,0.50
2019-02-21T12:11:13.331Z,1.73
2019-02-21T12:13:40.070Z,0.60
2019-02-21T12:16:07.527Z,0.50
2019-02-21T12:18:35.083Z,0.40
2019-02-21T12:21:02.655Z,0.60
2019-02-21T12:23:29.340Z,0.40
2019-02-21T12:25:56.023Z,1.03
2019-02-21T12:28:22.868Z,0.57
2019-02-21T12:30:50.426Z,0.73
2019-02-21T12:33:17.273Z,0.50
2019-02-21T12:35:44.831Z,0.50
2019-02-21T12:38:11.672Z,0.40
2019-02-21T12:40:39.140Z,3.90
2019-02-21T12:43:06.079Z,0.47
2019-02-21T12:45:33.019Z,0.70
2019-02-21T12:47:59.694Z,0.50
2019-02-21T12:50:26.609Z,0.50
2019-02-21T12:52:55.066Z,0.50
2019-02-21T12:55:29.391Z,0.70
2019-02-21T12:57:50.204Z,0.50
2019-02-21T13:00:17.856Z,0.70
2019-02-21T13:02:44.564Z,0.50
2019-02-21T13:05:11.594Z,1.87
2019-02-21T13:07:38.334Z,2.83
2019-02-21T13:10:05.954Z,0.50
2019-02-21T13:12:33.922Z,0.40
2019-02-21T13:15:00.976Z,0.40
2019-02-21T13:17:27.710Z,0.40
2019-02-21T13:19:54.555Z,0.97
2019-02-21T13:22:21.282Z,0.37
2019-02-21T13:24:48.039Z,0.93
2019-02-21T13:27:14.981Z,1.40
2019-02-21T13:29:41.720Z,0.57
2019-02-21T13:32:09.898Z,0.50
2019-02-21T13:34:36.710Z,0.40
2019-02-21T13:37:03.482Z,0.40
2019-02-21T13:39:30.326Z,0.40
2019-02-21T13:41:57.164Z,0.30
2019-02-21T13:44:23.841Z,0.50
2019-02-21T13:46:50.541Z,0.53
2019-02-21T13:49:17.383Z,0.37
2019-02-21T13:51:44.847Z,0.30
2019-02-21T13:54:11.486Z,0.50
2019-02-21T13:56:38.322Z,0.30
2019-02-21T13:59:05.780Z,1.60
2019-02-21T14:01:33.242Z,0.60
2019-02-21T14:04:00.185Z,0.63
2019-02-21T14:06:27.132Z,1.03
2019-02-21T14:08:53.865Z,0.40
2019-02-21T14:11:20.625Z,0.97
2019-02-21T14:13:47.457Z,0.77
2019-02-21T14:16:14.295Z,0.40
2019-02-21T14:18:40.978Z,0.20
2019-02-21T14:21:07.662Z,0.57
2019-02-21T14:23:35.136Z,0.50
2019-02-21T14:26:02.492Z,0.40
2019-02-21T14:28:29.162Z,1.23
2019-02-21T14:30:55.873Z,0.30
2019-02-21T14:33:22.544Z,0.43
2019-02-21T14:35:49.183Z,0.40
2019-02-21T14:38:27.021Z,0.43
2019-02-21T14:40:43.610Z,0.40
2019-02-21T14:43:10.262Z,0.57
2019-02-21T14:45:37.947Z,0.57
2019-02-21T14:48:04.674Z,0.40
2019-02-21T14:50:32.158Z,2.33
2019-02-21T14:52:58.987Z,0.47
2019-02-21T14:55:25.724Z,0.60
2019-02-21T14:57:53.287Z,0.83
2019-02-21T15:00:25.839Z,0.50
2019-02-21T15:02:53.268Z,0.37
2019-02-21T15:05:20.005Z,0.40
2019-02-21T15:07:47.009Z,0.50
2019-02-21T15:10:13.851Z,0.50
2019-02-21T15:12:40.596Z,0.67
2019-02-21T15:15:24.362Z,0.40
2019-02-21T15:17:51.061Z,0.50
2019-02-21T15:20:18.488Z,0.63
2019-02-21T15:22:47.489Z,0.50
2019-02-21T15:25:15.145Z,0.40
2019-02-21T15:27:42.627Z,0.50
2019-02-21T15:30:10.331Z,0.70
2019-02-21T15:32:37.039Z,0.70
2019-02-21T15:35:04.465Z,0.70
2019-02-21T15:37:34.321Z,0.47
2019-02-21T15:40:00.987Z,0.40
2019-02-21T15:42:28.639Z,0.70
2019-02-21T15:44:56.632Z,5.17
2019-02-21T15:47:23.337Z,1.73
2019-02-21T15:49:50.086Z,0.50
2019-02-21T15:52:22.244Z,0.57
2019-02-21T15:54:43.469Z,0.40
2019-02-21T15:57:10.186Z,0.60
2019-02-21T15:59:36.872Z,0.70
2019-02-21T16:02:03.625Z,0.50
2019-02-21T16:04:30.349Z,0.80
2019-02-21T16:06:57.016Z,0.70
2019-02-21T16:09:25.392Z,0.50
2019-02-21T16:11:50.507Z,0.60
2019-02-21T16:14:17.951Z,0.83
2019-02-21T16:16:45.395Z,0.87
2019-02-21T16:19:12.086Z,0.60
2019-02-21T16:21:38.836Z,0.80
2019-02-21T16:24:06.465Z,0.50
2019-02-21T16:26:33.460Z,0.60
2019-02-21T16:29:00.927Z,0.73
2019-02-21T16:31:27.612Z,0.70
2019-02-21T16:33:55.071Z,0.60
2019-02-21T16:36:21.788Z,0.63
2019-02-21T16:38:49.296Z,0.70
2019-02-21T16:41:15.952Z,0.93
2019-02-21T16:43:42.631Z,1.67
2019-02-21T16:46:10.118Z,0.53
2019-02-21T16:48:36.802Z,0.80
2019-02-21T16:51:03.463Z,0.93
2019-02-21T16:53:30.271Z,0.63
2019-02-21T16:55:57.900Z,0.70
2019-02-21T16:58:24.536Z,0.60
2019-02-21T17:00:54.860Z,0.60
2019-02-21T17:03:18.259Z,0.70
2019-02-21T17:05:44.981Z,0.60
2019-02-21T17:08:11.715Z,0.70
2019-02-21T17:10:38.410Z,0.77
2019-02-21T17:13:06.211Z,0.73
2019-02-21T17:15:33.096Z,0.87
2019-02-21T17:18:03.772Z,1.67
2019-02-21T17:20:27.829Z,0.60
2019-02-21T17:22:55.346Z,0.70
2019-02-21T17:25:22.058Z,1.27
2019-02-21T17:27:48.764Z,0.80
2019-02-21T17:30:15.533Z,0.60
2019-02-21T17:32:44.007Z,0.50
2019-02-21T17:35:10.754Z,0.80
2019-02-21T17:37:37.559Z,0.80
2019-02-21T17:40:05.963Z,0.67
2019-02-21T17:42:33.373Z,0.90
2019-02-21T17:45:00.851Z,0.60
2019-02-21T17:47:27.529Z,1.23
2019-02-21T17:49:54.378Z,1.10
2019-02-21T17:52:21.213Z,1.07
2019-02-21T17:54:47.928Z,0.80
2019-02-21T17:57:14.693Z,1.47
2019-02-21T17:59:42.566Z,3.90
2019-02-21T18:02:09.307Z,0.70
2019-02-21T18:04:35.968Z,2.50
2019-02-21T18:07:02.705Z,1.40
2019-02-21T18:09:29.426Z,1.70
2019-02-21T18:11:56.266Z,1.90
2019-02-21T18:14:23.167Z,5.47
2019-02-21T18:16:49.846Z,5.73
2019-02-21T18:19:17.411Z,9.10
2019-02-21T18:21:45.788Z,1.10
2019-02-21T18:24:12.477Z,1.63
2019-02-21T18:26:39.311Z,5.03
2019-02-21T18:29:06.157Z,3.90
2019-02-21T18:31:33.685Z,4.50
2019-02-21T18:34:00.466Z,2.80
2019-02-21T18:36:27.466Z,1.63
2019-02-21T18:38:54.341Z,2.20
2019-02-21T18:41:21.143Z,3.27
2019-02-21T18:43:48.193Z,2.43
2019-02-21T18:46:14.933Z,0.83
2019-02-21T18:48:41.876Z,2.60
2019-02-21T18:51:08.720Z,2.30
2019-02-21T18:53:36.176Z,2.13
2019-02-21T18:56:03.737Z,2.63
2019-02-21T18:58:30.691Z,2.70
2019-02-21T19:00:57.526Z,4.67
2019-02-21T19:03:24.468Z,2.93
2019-02-21T19:05:51.416Z,5.67
2019-02-21T19:08:18.366Z,1.20
2019-02-21T19:10:45.104Z,1.43
2019-02-21T19:13:12.155Z,2.30
2019-02-21T19:15:39.191Z,2.87
2019-02-21T19:18:06.860Z,1.93
2019-02-21T19:20:33.708Z,3.40
2019-02-21T19:23:00.957Z,3.07
2019-02-21T19:25:28.004Z,0.73
2019-02-21T19:27:54.948Z,0.97
2019-02-21T19:30:36.583Z,0.97
2019-02-21T19:33:03.631Z,0.70
2019-02-21T19:35:30.480Z,2.10
2019-02-21T19:37:57.374Z,5.07
2019-02-21T19:40:24.316Z,4.10
2019-02-21T19:42:51.055Z,0.90
2019-02-21T19:45:18.622Z,0.90
2019-02-21T19:47:45.663Z,0.90
2019-02-21T19:50:12.612Z,4.00
2019-02-21T19:52:39.557Z,0.70
2019-02-21T19:55:07.321Z,0.80
2019-02-21T19:57:34.265Z,1.83
2019-02-21T20:00:01.116Z,0.67
2019-02-21T20:02:28.158Z,0.90
2019-02-21T20:04:55.716Z,1.37
2019-02-21T20:07:22.727Z,1.20
2019-02-21T20:09:49.510Z,0.97
2019-02-21T20:12:16.450Z,4.90
2019-02-21T20:14:43.397Z,5.20
2019-02-21T20:17:10.443Z,3.70
2019-02-21T20:19:39.093Z,2.93
2019-02-21T20:22:06.072Z,2.10
2019-02-21T20:24:33.941Z,2.87
2019-02-21T20:27:01.706Z,1.03
2019-02-21T20:29:30.176Z,1.40
2019-02-21T20:31:58.967Z,0.97
2019-02-21T20:34:26.328Z,0.80
2019-02-21T20:36:53.389Z,1.03
2019-02-21T20:39:20.219Z,1.70
2019-02-21T20:41:47.393Z,3.50
2019-02-21T20:44:14.622Z,0.60
2019-02-21T20:46:42.290Z,1.07
2019-02-21T20:49:09.230Z,0.70
2019-02-21T20:51:35.968Z,1.30
2019-02-21T20:54:03.939Z,1.80
2019-02-21T20:56:31.394Z,1.23
2019-02-21T20:58:58.136Z,1.00
2019-02-21T21:01:25.185Z,0.90
2019-02-21T21:03:52.949Z,0.90
2019-02-21T21:06:20.611Z,0.97
2019-02-21T21:08:47.455Z,1.53
2019-02-21T21:11:14.305Z,1.13
2019-02-21T21:13:43.897Z,1.13
2019-02-21T21:16:08.496Z,2.70
2019-02-21T21:18:35.950Z,2.17
2019-02-21T21:21:03.929Z,1.80
2019-02-21T21:23:30.871Z,2.23
2019-02-21T21:25:57.706Z,1.10
2019-02-21T21:28:25.371Z,1.53
2019-02-21T21:30:53.031Z,1.70
2019-02-21T21:33:19.990Z,1.50
2019-02-21T21:35:47.948Z,1.27
2019-02-21T21:38:23.743Z,1.13
2019-02-21T21:40:42.348Z,3.93
2019-02-21T21:43:10.215Z,1.63
2019-02-21T21:45:37.059Z,2.00
2019-02-21T21:48:04.413Z,1.60
2019-02-21T21:50:33.204Z,1.77
2019-02-21T21:53:00.149Z,1.53
2019-02-21T21:55:26.871Z,1.40
2019-02-21T21:57:54.447Z,1.40
2019-02-21T22:00:22.315Z,2.77
2019-02-21T22:02:49.362Z,1.87
2019-02-21T22:05:16.511Z,1.60
2019-02-21T22:07:44.991Z,3.30
2019-02-21T22:10:12.040Z,1.70
2019-02-21T22:12:40.159Z,2.70
2019-02-21T22:15:07.058Z,1.50
2019-02-21T22:17:34.821Z,2.23
2019-02-21T22:20:02.725Z,1.97
2019-02-21T22:22:30.716Z,1.57
2019-02-21T22:24:57.602Z,1.60
2019-02-21T22:27:24.935Z,1.37
2019-02-21T22:29:52.419Z,1.73
2019-02-21T22:32:21.413Z,1.07
2019-02-21T22:34:49.177Z,1.53
2019-02-21T22:37:16.118Z,1.50
2019-02-21T22:39:44.906Z,1.20
2019-02-21T22:42:12.061Z,1.43
2019-02-21T22:44:39.006Z,1.13
2019-02-21T22:47:07.607Z,1.23
2019-02-21T22:49:35.145Z,1.10
2019-02-21T22:52:02.806Z,1.27
2019-02-21T22:54:30.368Z,1.20
2019-02-21T22:56:57.211Z,1.40
2019-02-21T22:59:23.951Z,1.60
2019-02-21T23:01:51.817Z,1.20
2019-02-21T23:04:19.584Z,1.23
2019-02-21T23:06:48.472Z,2.07
2019-02-21T23:09:27.160Z,2.10
2019-02-21T23:11:43.900Z,1.27
2019-02-21T23:14:12.074Z,1.10
2019-02-21T23:16:39.535Z,1.60
2019-02-21T23:19:07.093Z,1.00
2019-02-21T23:21:34.651Z,1.30
2019-02-21T23:24:02.005Z,1.60
2019-02-21T23:26:30.759Z,1.20
2019-02-21T23:28:58.354Z,2.00
2019-02-21T23:31:26.426Z,1.20
2019-02-21T23:33:53.471Z,1.20
2019-02-21T23:36:21.034Z,1.27
2019-02-21T23:38:48.489Z,1.00
2019-02-21T23:41:15.438Z,1.83
2019-02-21T23:43:42.594Z,1.53
2019-02-21T23:46:11.371Z,1.10
2019-02-21T23:48:39.350Z,1.07
2019-02-21T23:51:06.083Z,1.00
2019-02-21T23:53:34.569Z,0.97
2019-02-21T23:56:01.718Z,1.10
2019-02-21T23:58:28.765Z,1.13
